Terminal Aerodrome Forecast
Issued by NWS

Home | Current Version | Previous Version | Text Only | Print | Product List | Glossary On
Versions: 1 2 3 4 5 6 7 8 9 10 11 12 13 14 15 16 17 18 19 20 21 22 23 24 25 26 27
008
FTUS43 KPAH 242324
TAFOWB
TAF
KOWB 242324Z 2500/2524 29007KT P6SM SCT020 OVC070
      TEMPO 2500/2504 -RA
     FM250400 29006KT 6SM -RA BR SCT006 BKN015
     FM251000 28012KT 5SM -DZ BR BKN006
     FM251600 28009G18KT P6SM BKN020=

USA.gov is the U.S. government's official web portal to all federal, state and local government web resources and services.